Terminal Aerodrome Forecast
Issued by NWS Medford, OR

Home | Current Version | Previous Version | Text Only | Print | Product List | Glossary On
Versions: 1 2 3 4 5 6 7 8 9 10 11 12 13 14 15 16 17 18 19
000
FTUS46 KMFR 240539
TAFMFR
TAF
KMFR 240539Z 2406/2506 32005KT P6SM SCT035 BKN070
     FM241000 00000KT 1/2SM FG OVC002
     FM241600 VRB02KT 1SM BR OVC003
     FM241800 03003KT P6SM SCT010 SCT050=

USA.gov is the U.S. government's official web portal to all federal, state and local government web resources and services.